sensor_id;sensor_type;location;lat;lon;timestamp;P1;durP1;ratioP1;P2;durP2;ratioP2
44137;SDS011;29800;55.942;37.314;2022-09-09T00:01:05;3.38;;;1.73;;
44137;SDS011;29800;55.942;37.314;2022-09-09T00:03:44;3.53;;;1.92;;
44137;SDS011;29800;55.942;37.314;2022-09-09T00:06:23;3.55;;;1.80;;
44137;SDS011;29800;55.942;37.314;2022-09-09T00:11:51;2.90;;;1.70;;
44137;SDS011;29800;55.942;37.314;2022-09-09T00:17:02;2.65;;;1.40;;
44137;SDS011;29800;55.942;37.314;2022-09-09T00:22:29;3.38;;;1.55;;
44137;SDS011;29800;55.942;37.314;2022-09-09T00:25:42;3.03;;;1.70;;
44137;SDS011;29800;55.942;37.314;2022-09-09T00:27:53;4.22;;;1.90;;
44137;SDS011;29800;55.942;37.314;2022-09-09T00:30:21;3.97;;;1.70;;
44137;SDS011;29800;55.942;37.314;2022-09-09T00:33:09;5.85;;;1.85;;
44137;SDS011;29800;55.942;37.314;2022-09-09T00:35:47;3.03;;;1.63;;
44137;SDS011;29800;55.942;37.314;2022-09-09T00:38:20;3.35;;;1.75;;
44137;SDS011;29800;55.942;37.314;2022-09-09T00:44:00;4.00;;;1.60;;
44137;SDS011;29800;55.942;37.314;2022-09-09T00:54:54;2.97;;;1.65;;
44137;SDS011;29800;55.942;37.314;2022-09-09T00:57:41;3.50;;;1.40;;
44137;SDS011;29800;55.942;37.314;2022-09-09T01:06:16;3.70;;;1.42;;
44137;SDS011;29800;55.942;37.314;2022-09-09T01:09:05;3.13;;;1.45;;
44137;SDS011;29800;55.942;37.314;2022-09-09T01:17:07;3.50;;;1.50;;
44137;SDS011;29800;55.942;37.314;2022-09-09T01:28:03;2.45;;;1.30;;
44137;SDS011;29800;55.942;37.314;2022-09-09T01:30:37;2.35;;;1.42;;
44137;SDS011;29800;55.942;37.314;2022-09-09T01:33:10;5.30;;;1.52;;
44137;SDS011;29800;55.942;37.314;2022-09-09T01:38:49;2.05;;;1.23;;
44137;SDS011;29800;55.942;37.314;2022-09-09T01:41:17;3.72;;;1.60;;
44137;SDS011;29800;55.942;37.314;2022-09-09T01:43:49;2.03;;;1.10;;
44137;SDS011;29800;55.942;37.314;2022-09-09T01:46:17;6.07;;;1.60;;
44137;SDS011;29800;55.942;37.314;2022-09-09T01:48:48;2.20;;;1.27;;
44137;SDS011;29800;55.942;37.314;2022-09-09T01:51:19;3.45;;;1.20;;
44137;SDS011;29800;55.942;37.314;2022-09-09T01:53:46;3.55;;;1.35;;
44137;SDS011;29800;55.942;37.314;2022-09-09T01:56:36;3.72;;;1.38;;
44137;SDS011;29800;55.942;37.314;2022-09-09T01:59:18;2.67;;;1.27;;
44137;SDS011;29800;55.942;37.314;2022-09-09T02:02:09;3.38;;;1.40;;
44137;SDS011;29800;55.942;37.314;2022-09-09T02:04:39;2.08;;;1.20;;
44137;SDS011;29800;55.942;37.314;2022-09-09T02:09:47;4.05;;;1.45;;
44137;SDS011;29800;55.942;37.314;2022-09-09T02:12:23;2.88;;;1.45;;
44137;SDS011;29800;55.942;37.314;2022-09-09T02:15:04;8.45;;;1.55;;
44137;SDS011;29800;55.942;37.314;2022-09-09T02:17:48;3.97;;;1.50;;
44137;SDS011;29800;55.942;37.314;2022-09-09T02:20:18;4.03;;;1.60;;
44137;SDS011;29800;55.942;37.314;2022-09-09T02:22:55;4.57;;;1.50;;
44137;SDS011;29800;55.942;37.314;2022-09-09T02:25:24;3.85;;;1.40;;
44137;SDS011;29800;55.942;37.314;2022-09-09T02:27:58;3.78;;;1.48;;
44137;SDS011;29800;55.942;37.314;2022-09-09T02:30:25;3.05;;;1.50;;
44137;SDS011;29800;55.942;37.314;2022-09-09T02:32:57;3.15;;;1.35;;
44137;SDS011;29800;55.942;37.314;2022-09-09T02:35:40;2.30;;;1.30;;
44137;SDS011;29800;55.942;37.314;2022-09-09T02:38:10;3.58;;;1.30;;
44137;SDS011;29800;55.942;37.314;2022-09-09T02:40:44;4.68;;;1.23;;
44137;SDS011;29800;55.942;37.314;2022-09-09T02:43:11;2.30;;;1.20;;
44137;SDS011;29800;55.942;37.314;2022-09-09T02:49:02;2.58;;;1.20;;
44137;SDS011;29800;55.942;37.314;2022-09-09T02:52:00;2.20;;;1.08;;
44137;SDS011;29800;55.942;37.314;2022-09-09T02:54:37;2.35;;;1.30;;
44137;SDS011;29800;55.942;37.314;2022-09-09T02:57:13;2.75;;;1.15;;
44137;SDS011;29800;55.942;37.314;2022-09-09T02:59:46;2.47;;;1.20;;
44137;SDS011;29800;55.942;37.314;2022-09-09T03:02:13;3.35;;;1.15;;
44137;SDS011;29800;55.942;37.314;2022-09-09T03:04:41;5.45;;;1.08;;
44137;SDS011;29800;55.942;37.314;2022-09-09T03:07:12;2.25;;;1.23;;
44137;SDS011;29800;55.942;37.314;2022-09-09T03:09:40;3.38;;;1.05;;
44137;SDS011;29800;55.942;37.314;2022-09-09T03:12:07;3.75;;;1.15;;
44137;SDS011;29800;55.942;37.314;2022-09-09T03:14:34;2.78;;;1.25;;
44137;SDS011;29800;55.942;37.314;2022-09-09T03:17:00;2.45;;;1.27;;
44137;SDS011;29800;55.942;37.314;2022-09-09T03:19:32;6.03;;;1.25;;
44137;SDS011;29800;55.942;37.314;2022-09-09T03:21:58;2.15;;;1.10;;
44137;SDS011;29800;55.942;37.314;2022-09-09T03:24:28;3.00;;;1.30;;
44137;SDS011;29800;55.942;37.314;2022-09-09T03:26:54;3.55;;;1.30;;
44137;SDS011;29800;55.942;37.314;2022-09-09T03:29:21;2.65;;;1.30;;
44137;SDS011;29800;55.942;37.314;2022-09-09T03:31:48;2.63;;;1.30;;
44137;SDS011;29800;55.942;37.314;2022-09-09T03:34:15;5.00;;;1.38;;
44137;SDS011;29800;55.942;37.314;2022-09-09T03:36:42;2.38;;;1.35;;
44137;SDS011;29800;55.942;37.314;2022-09-09T03:39:09;2.25;;;1.25;;
44137;SDS011;29800;55.942;37.314;2022-09-09T03:41:36;5.13;;;1.40;;
44137;SDS011;29800;55.942;37.314;2022-09-09T03:44:03;2.45;;;1.20;;
44137;SDS011;29800;55.942;37.314;2022-09-09T03:46:35;2.08;;;1.30;;
44137;SDS011;29800;55.942;37.314;2022-09-09T03:49:01;4.38;;;1.10;;
44137;SDS011;29800;55.942;37.314;2022-09-09T03:51:30;1.98;;;1.20;;
44137;SDS011;29800;55.942;37.314;2022-09-09T03:53:56;4.20;;;1.30;;
44137;SDS011;29800;55.942;37.314;2022-09-09T03:56:25;4.60;;;1.30;;
44137;SDS011;29800;55.942;37.314;2022-09-09T03:58:51;3.45;;;1.35;;
44137;SDS011;29800;55.942;37.314;2022-09-09T04:01:17;8.15;;;1.20;;
44137;SDS011;29800;55.942;37.314;2022-09-09T04:03:44;3.33;;;1.30;;
44137;SDS011;29800;55.942;37.314;2022-09-09T04:06:11;3.63;;;1.17;;
44137;SDS011;29800;55.942;37.314;2022-09-09T04:08:41;2.28;;;1.20;;
44137;SDS011;29800;55.942;37.314;2022-09-09T04:11:07;2.35;;;1.27;;
44137;SDS011;29800;55.942;37.314;2022-09-09T04:13:35;2.50;;;1.15;;
44137;SDS011;29800;55.942;37.314;2022-09-09T04:16:09;2.28;;;1.20;;
44137;SDS011;29800;55.942;37.314;2022-09-09T04:18:37;2.30;;;1.23;;
44137;SDS011;29800;55.942;37.314;2022-09-09T04:21:03;3.40;;;1.10;;
44137;SDS011;29800;55.942;37.314;2022-09-09T04:23:32;2.20;;;1.10;;
44137;SDS011;29800;55.942;37.314;2022-09-09T04:25:59;2.05;;;1.25;;
44137;SDS011;29800;55.942;37.314;2022-09-09T04:28:28;1.70;;;0.90;;
44137;SDS011;29800;55.942;37.314;2022-09-09T04:30:57;2.05;;;1.10;;
44137;SDS011;29800;55.942;37.314;2022-09-09T04:33:30;2.50;;;1.05;;
44137;SDS011;29800;55.942;37.314;2022-09-09T04:35:57;1.73;;;1.05;;
44137;SDS011;29800;55.942;37.314;2022-09-09T04:38:28;1.73;;;1.00;;
44137;SDS011;29800;55.942;37.314;2022-09-09T04:40:55;3.47;;;1.08;;
44137;SDS011;29800;55.942;37.314;2022-09-09T04:43:21;5.80;;;1.20;;
44137;SDS011;29800;55.942;37.314;2022-09-09T04:45:49;1.92;;;0.90;;
44137;SDS011;29800;55.942;37.314;2022-09-09T04:48:19;3.67;;;1.02;;
44137;SDS011;29800;55.942;37.314;2022-09-09T04:50:54;1.38;;;0.90;;
44137;SDS011;29800;55.942;37.314;2022-09-09T04:53:22;2.63;;;0.93;;
44137;SDS011;29800;55.942;37.314;2022-09-09T04:55:49;1.58;;;1.00;;
44137;SDS011;29800;55.942;37.314;2022-09-09T04:58:15;2.42;;;1.00;;
44137;SDS011;29800;55.942;37.314;2022-09-09T05:00:41;3.47;;;1.08;;
44137;SDS011;29800;55.942;37.314;2022-09-09T05:03:08;2.38;;;1.00;;
44137;SDS011;29800;55.942;37.314;2022-09-09T05:05:35;1.67;;;1.17;;
44137;SDS011;29800;55.942;37.314;2022-09-09T05:08:06;2.17;;;1.05;;
44137;SDS011;29800;55.942;37.314;2022-09-09T05:10:36;3.05;;;0.95;;
44137;SDS011;29800;55.942;37.314;2022-09-09T05:13:04;1.58;;;0.80;;
44137;SDS011;29800;55.942;37.314;2022-09-09T05:15:32;2.20;;;1.05;;
44137;SDS011;29800;55.942;37.314;2022-09-09T05:17:59;1.40;;;0.80;;
44137;SDS011;29800;55.942;37.314;2022-09-09T05:20:28;2.80;;;0.68;;
44137;SDS011;29800;55.942;37.314;2022-09-09T05:22:55;1.00;;;0.65;;
44137;SDS011;29800;55.942;37.314;2022-09-09T05:25:25;2.25;;;0.98;;
44137;SDS011;29800;55.942;37.314;2022-09-09T05:27:53;0.80;;;0.70;;
44137;SDS011;29800;55.942;37.314;2022-09-09T05:30:20;2.38;;;0.70;;
44137;SDS011;29800;55.942;37.314;2022-09-09T05:32:49;1.67;;;0.80;;
44137;SDS011;29800;55.942;37.314;2022-09-09T05:35:17;1.05;;;0.73;;
44137;SDS011;29800;55.942;37.314;2022-09-09T05:37:45;1.27;;;0.68;;
44137;SDS011;29800;55.942;37.314;2022-09-09T05:40:12;1.25;;;0.77;;
44137;SDS011;29800;55.942;37.314;2022-09-09T05:42:39;2.05;;;0.60;;
44137;SDS011;29800;55.942;37.314;2022-09-09T05:45:06;2.60;;;0.77;;
44137;SDS011;29800;55.942;37.314;2022-09-09T05:47:34;1.48;;;0.60;;
44137;SDS011;29800;55.942;37.314;2022-09-09T05:50:04;2.53;;;0.70;;
44137;SDS011;29800;55.942;37.314;2022-09-09T05:52:31;0.70;;;0.50;;
44137;SDS011;29800;55.942;37.314;2022-09-09T05:54:58;3.35;;;0.57;;
44137;SDS011;29800;55.942;37.314;2022-09-09T05:57:25;1.52;;;0.70;;
44137;SDS011;29800;55.942;37.314;2022-09-09T05:59:51;4.15;;;0.60;;
44137;SDS011;29800;55.942;37.314;2022-09-09T06:02:17;0.98;;;0.40;;
44137;SDS011;29800;55.942;37.314;2022-09-09T06:04:43;3.45;;;0.70;;
44137;SDS011;29800;55.942;37.314;2022-09-09T06:07:11;1.25;;;0.40;;
44137;SDS011;29800;55.942;37.314;2022-09-09T06:09:37;2.47;;;0.90;;
44137;SDS011;29800;55.942;37.314;2022-09-09T06:12:03;1.63;;;0.63;;
44137;SDS011;29800;55.942;37.314;2022-09-09T06:14:33;1.00;;;0.40;;
44137;SDS011;29800;55.942;37.314;2022-09-09T06:17:00;1.63;;;0.80;;
44137;SDS011;29800;55.942;37.314;2022-09-09T06:19:29;0.75;;;0.47;;
44137;SDS011;29800;55.942;37.314;2022-09-09T06:21:57;0.63;;;0.50;;
44137;SDS011;29800;55.942;37.314;2022-09-09T06:24:26;1.33;;;0.65;;
44137;SDS011;29800;55.942;37.314;2022-09-09T06:26:52;1.95;;;0.43;;
44137;SDS011;29800;55.942;37.314;2022-09-09T06:29:23;1.92;;;0.65;;
44137;SDS011;29800;55.942;37.314;2022-09-09T06:31:50;0.88;;;0.47;;
44137;SDS011;29800;55.942;37.314;2022-09-09T06:34:20;0.88;;;0.50;;
44137;SDS011;29800;55.942;37.314;2022-09-09T06:36:50;1.15;;;0.52;;
44137;SDS011;29800;55.942;37.314;2022-09-09T06:39:17;1.65;;;0.45;;
44137;SDS011;29800;55.942;37.314;2022-09-09T06:41:44;2.13;;;0.40;;
44137;SDS011;29800;55.942;37.314;2022-09-09T06:44:33;1.48;;;0.40;;
44137;SDS011;29800;55.942;37.314;2022-09-09T06:47:00;1.35;;;0.43;;
44137;SDS011;29800;55.942;37.314;2022-09-09T06:49:26;1.42;;;0.50;;
44137;SDS011;29800;55.942;37.314;2022-09-09T06:51:52;1.05;;;0.60;;
44137;SDS011;29800;55.942;37.314;2022-09-09T06:54:19;1.98;;;0.50;;
44137;SDS011;29800;55.942;37.314;2022-09-09T06:56:47;1.02;;;0.50;;
44137;SDS011;29800;55.942;37.314;2022-09-09T06:59:20;0.73;;;0.50;;
44137;SDS011;29800;55.942;37.314;2022-09-09T07:01:47;3.17;;;0.63;;
44137;SDS011;29800;55.942;37.314;2022-09-09T07:04:14;2.58;;;0.50;;
44137;SDS011;29800;55.942;37.314;2022-09-09T07:06:43;1.17;;;0.60;;
44137;SDS011;29800;55.942;37.314;2022-09-09T07:09:16;0.50;;;0.43;;
44137;SDS011;29800;55.942;37.314;2022-09-09T07:11:46;1.10;;;0.40;;
44137;SDS011;29800;55.942;37.314;2022-09-09T07:14:15;1.25;;;0.40;;
44137;SDS011;29800;55.942;37.314;2022-09-09T07:16:45;1.33;;;0.50;;
44137;SDS011;29800;55.942;37.314;2022-09-09T07:19:14;4.32;;;0.40;;
44137;SDS011;29800;55.942;37.314;2022-09-09T07:21:41;1.77;;;0.40;;
44137;SDS011;29800;55.942;37.314;2022-09-09T07:24:11;1.92;;;0.40;;
44137;SDS011;29800;55.942;37.314;2022-09-09T07:26:40;2.28;;;0.50;;
44137;SDS011;29800;55.942;37.314;2022-09-09T07:29:07;2.67;;;0.55;;
44137;SDS011;29800;55.942;37.314;2022-09-09T07:31:34;1.83;;;0.60;;
44137;SDS011;29800;55.942;37.314;2022-09-09T07:34:05;0.77;;;0.40;;
44137;SDS011;29800;55.942;37.314;2022-09-09T07:36:33;2.90;;;1.17;;
44137;SDS011;29800;55.942;37.314;2022-09-09T07:39:03;1.02;;;0.45;;
44137;SDS011;29800;55.942;37.314;2022-09-09T07:41:33;2.05;;;0.50;;
44137;SDS011;29800;55.942;37.314;2022-09-09T07:44:06;1.17;;;0.70;;
44137;SDS011;29800;55.942;37.314;2022-09-09T07:46:35;1.20;;;0.60;;
44137;SDS011;29800;55.942;37.314;2022-09-09T07:49:02;0.98;;;0.50;;
44137;SDS011;29800;55.942;37.314;2022-09-09T07:51:37;1.83;;;0.60;;
44137;SDS011;29800;55.942;37.314;2022-09-09T07:54:08;1.58;;;0.80;;
44137;SDS011;29800;55.942;37.314;2022-09-09T07:56:39;1.17;;;0.55;;
44137;SDS011;29800;55.942;37.314;2022-09-09T07:59:07;1.10;;;0.47;;
44137;SDS011;29800;55.942;37.314;2022-09-09T08:01:39;1.90;;;0.70;;
44137;SDS011;29800;55.942;37.314;2022-09-09T08:04:11;1.73;;;0.38;;
44137;SDS011;29800;55.942;37.314;2022-09-09T08:06:45;1.08;;;0.52;;
44137;SDS011;29800;55.942;37.314;2022-09-09T08:09:14;1.80;;;1.00;;
44137;SDS011;29800;55.942;37.314;2022-09-09T08:11:41;0.93;;;0.60;;
44137;SDS011;29800;55.942;37.314;2022-09-09T08:14:08;1.58;;;0.60;;
44137;SDS011;29800;55.942;37.314;2022-09-09T08:16:37;1.15;;;0.60;;
44137;SDS011;29800;55.942;37.314;2022-09-09T08:19:10;0.80;;;0.60;;
44137;SDS011;29800;55.942;37.314;2022-09-09T08:21:39;6.43;;;3.20;;
44137;SDS011;29800;55.942;37.314;2022-09-09T08:24:06;4.43;;;1.23;;
44137;SDS011;29800;55.942;37.314;2022-09-09T08:26:35;2.13;;;0.85;;
44137;SDS011;29800;55.942;37.314;2022-09-09T08:29:05;2.47;;;0.80;;
44137;SDS011;29800;55.942;37.314;2022-09-09T08:31:34;2.03;;;0.80;;
44137;SDS011;29800;55.942;37.314;2022-09-09T08:34:05;1.80;;;0.80;;
44137;SDS011;29800;55.942;37.314;2022-09-09T08:36:34;1.73;;;0.57;;
44137;SDS011;29800;55.942;37.314;2022-09-09T08:39:03;0.90;;;0.50;;
44137;SDS011;29800;55.942;37.314;2022-09-09T08:44:06;0.95;;;0.57;;
44137;SDS011;29800;55.942;37.314;2022-09-09T08:46:43;1.95;;;0.60;;
44137;SDS011;29800;55.942;37.314;2022-09-09T08:51:39;1.88;;;0.68;;
44137;SDS011;29800;55.942;37.314;2022-09-09T08:54:05;1.23;;;0.63;;
44137;SDS011;29800;55.942;37.314;2022-09-09T08:56:32;0.43;;;0.40;;
44137;SDS011;29800;55.942;37.314;2022-09-09T08:59:01;0.52;;;0.40;;
44137;SDS011;29800;55.942;37.314;2022-09-09T09:07:04;1.70;;;0.80;;
44137;SDS011;29800;55.942;37.314;2022-09-09T09:09:46;2.80;;;1.50;;
44137;SDS011;29800;55.942;37.314;2022-09-09T09:12:35;1.90;;;1.20;;
44137;SDS011;29800;55.942;37.314;2022-09-09T09:15:14;1.27;;;0.60;;
44137;SDS011;29800;55.942;37.314;2022-09-09T09:17:45;0.88;;;0.52;;
44137;SDS011;29800;55.942;37.314;2022-09-09T09:20:16;0.30;;;0.25;;
44137;SDS011;29800;55.942;37.314;2022-09-09T09:22:50;0.90;;;0.40;;
44137;SDS011;29800;55.942;37.314;2022-09-09T09:25:21;1.38;;;0.60;;
44137;SDS011;29800;55.942;37.314;2022-09-09T09:30:41;0.90;;;0.55;;
44137;SDS011;29800;55.942;37.314;2022-09-09T09:36:38;1.00;;;0.57;;
44137;SDS011;29800;55.942;37.314;2022-09-09T09:39:28;1.58;;;0.80;;
44137;SDS011;29800;55.942;37.314;2022-09-09T09:42:12;2.03;;;1.00;;
44137;SDS011;29800;55.942;37.314;2022-09-09T09:44:41;1.00;;;0.73;;
44137;SDS011;29800;55.942;37.314;2022-09-09T09:47:19;1.63;;;0.60;;
44137;SDS011;29800;55.942;37.314;2022-09-09T09:49:55;1.17;;;0.50;;
44137;SDS011;29800;55.942;37.314;2022-09-09T09:52:26;0.85;;;0.45;;
44137;SDS011;29800;55.942;37.314;2022-09-09T09:54:54;0.75;;;0.47;;
44137;SDS011;29800;55.942;37.314;2022-09-09T09:57:24;1.25;;;0.40;;
44137;SDS011;29800;55.942;37.314;2022-09-09T10:00:12;0.38;;;0.30;;
44137;SDS011;29800;55.942;37.314;2022-09-09T10:02:42;0.68;;;0.25;;
44137;SDS011;29800;55.942;37.314;2022-09-09T10:08:13;2.90;;;0.80;;
44137;SDS011;29800;55.942;37.314;2022-09-09T10:10:46;1.85;;;0.80;;
44137;SDS011;29800;55.942;37.314;2022-09-09T10:13:41;1.52;;;0.60;;
44137;SDS011;29800;55.942;37.314;2022-09-09T10:16:25;0.85;;;0.47;;
44137;SDS011;29800;55.942;37.314;2022-09-09T10:19:14;0.70;;;0.40;;
44137;SDS011;29800;55.942;37.314;2022-09-09T10:21:56;0.32;;;0.30;;
44137;SDS011;29800;55.942;37.314;2022-09-09T10:27:17;1.67;;;0.60;;
44137;SDS011;29800;55.942;37.314;2022-09-09T10:32:49;1.80;;;0.93;;
44137;SDS011;29800;55.942;37.314;2022-09-09T10:47:00;2.30;;;0.70;;
44137;SDS011;29800;55.942;37.314;2022-09-09T10:52:31;1.33;;;0.80;;
44137;SDS011;29800;55.942;37.314;2022-09-09T10:55:18;0.93;;;0.57;;
44137;SDS011;29800;55.942;37.314;2022-09-09T10:57:52;0.85;;;0.52;;
44137;SDS011;29800;55.942;37.314;2022-09-09T11:00:37;1.25;;;0.60;;
44137;SDS011;29800;55.942;37.314;2022-09-09T11:03:11;1.65;;;0.80;;
44137;SDS011;29800;55.942;37.314;2022-09-09T11:05:53;0.95;;;0.50;;
44137;SDS011;29800;55.942;37.314;2022-09-09T11:08:22;1.33;;;0.50;;
44137;SDS011;29800;55.942;37.314;2022-09-09T11:13:33;2.17;;;0.40;;
44137;SDS011;29800;55.942;37.314;2022-09-09T11:19:14;3.75;;;1.48;;
44137;SDS011;29800;55.942;37.314;2022-09-09T11:21:47;1.35;;;0.70;;
44137;SDS011;29800;55.942;37.314;2022-09-09T11:24:48;2.45;;;0.50;;
44137;SDS011;29800;55.942;37.314;2022-09-09T11:27:17;1.25;;;0.55;;
44137;SDS011;29800;55.942;37.314;2022-09-09T11:29:52;1.40;;;0.70;;
44137;SDS011;29800;55.942;37.314;2022-09-09T11:38:21;1.17;;;0.60;;
44137;SDS011;29800;55.942;37.314;2022-09-09T11:40:57;1.83;;;0.65;;
44137;SDS011;29800;55.942;37.314;2022-09-09T11:43:30;2.28;;;0.73;;
44137;SDS011;29800;55.942;37.314;2022-09-09T11:45:59;0.88;;;0.50;;
44137;SDS011;29800;55.942;37.314;2022-09-09T11:48:29;2.50;;;0.52;;
44137;SDS011;29800;55.942;37.314;2022-09-09T11:51:04;0.95;;;0.50;;
44137;SDS011;29800;55.942;37.314;2022-09-09T11:53:33;1.80;;;0.90;;
44137;SDS011;29800;55.942;37.314;2022-09-09T11:59:01;1.60;;;0.75;;
44137;SDS011;29800;55.942;37.314;2022-09-09T12:06:43;0.70;;;0.40;;
44137;SDS011;29800;55.942;37.314;2022-09-09T12:12:50;1.58;;;0.70;;
44137;SDS011;29800;55.942;37.314;2022-09-09T12:14:59;1.55;;;0.63;;
44137;SDS011;29800;55.942;37.314;2022-09-09T12:17:30;1.05;;;0.70;;
44137;SDS011;29800;55.942;37.314;2022-09-09T12:20:26;2.40;;;1.20;;
44137;SDS011;29800;55.942;37.314;2022-09-09T12:25:48;2.13;;;0.80;;
44137;SDS011;29800;55.942;37.314;2022-09-09T12:28:18;1.20;;;0.70;;
44137;SDS011;29800;55.942;37.314;2022-09-09T12:33:49;1.48;;;0.70;;
44137;SDS011;29800;55.942;37.314;2022-09-09T12:36:22;1.27;;;0.55;;
44137;SDS011;29800;55.942;37.314;2022-09-09T12:39:08;5.13;;;0.68;;
44137;SDS011;29800;55.942;37.314;2022-09-09T12:41:50;3.15;;;0.85;;
44137;SDS011;29800;55.942;37.314;2022-09-09T12:44:25;2.92;;;0.80;;
44137;SDS011;29800;55.942;37.314;2022-09-09T12:47:01;1.55;;;0.88;;
44137;SDS011;29800;55.942;37.314;2022-09-09T12:52:11;1.27;;;0.70;;
44137;SDS011;29800;55.942;37.314;2022-09-09T12:54:51;23.15;;;13.48;;
44137;SDS011;29800;55.942;37.314;2022-09-09T12:57:19;65.60;;;40.45;;
44137;SDS011;29800;55.942;37.314;2022-09-09T12:59:50;9.80;;;6.50;;
44137;SDS011;29800;55.942;37.314;2022-09-09T13:02:23;2.90;;;1.70;;
44137;SDS011;29800;55.942;37.314;2022-09-09T13:05:05;2.13;;;1.10;;
44137;SDS011;29800;55.942;37.314;2022-09-09T13:07:48;3.20;;;1.25;;
44137;SDS011;29800;55.942;37.314;2022-09-09T13:10:27;1.70;;;0.80;;
44137;SDS011;29800;55.942;37.314;2022-09-09T13:12:55;1.58;;;0.80;;
44137;SDS011;29800;55.942;37.314;2022-09-09T13:15:27;1.98;;;1.20;;
44137;SDS011;29800;55.942;37.314;2022-09-09T13:17:59;3.33;;;1.83;;
44137;SDS011;29800;55.942;37.314;2022-09-09T13:20:36;3.42;;;1.25;;
44137;SDS011;29800;55.942;37.314;2022-09-09T13:23:02;1.48;;;0.80;;
44137;SDS011;29800;55.942;37.314;2022-09-09T13:25:28;2.08;;;1.00;;
44137;SDS011;29800;55.942;37.314;2022-09-09T13:27:59;1.23;;;0.80;;
44137;SDS011;29800;55.942;37.314;2022-09-09T13:30:38;1.35;;;0.80;;
44137;SDS011;29800;55.942;37.314;2022-09-09T13:35:47;3.25;;;0.70;;
44137;SDS011;29800;55.942;37.314;2022-09-09T13:38:26;3.88;;;1.00;;
44137;SDS011;29800;55.942;37.314;2022-09-09T13:40:58;4.90;;;2.72;;
44137;SDS011;29800;55.942;37.314;2022-09-09T13:43:45;6.05;;;1.90;;
44137;SDS011;29800;55.942;37.314;2022-09-09T13:46:26;4.30;;;2.03;;
44137;SDS011;29800;55.942;37.314;2022-09-09T13:51:43;2.47;;;1.00;;
44137;SDS011;29800;55.942;37.314;2022-09-09T13:54:13;1.67;;;0.82;;
44137;SDS011;29800;55.942;37.314;2022-09-09T13:56:40;1.75;;;0.90;;
44137;SDS011;29800;55.942;37.314;2022-09-09T13:59:14;3.10;;;1.30;;
44137;SDS011;29800;55.942;37.314;2022-09-09T14:01:46;4.82;;;1.95;;
44137;SDS011;29800;55.942;37.314;2022-09-09T14:04:20;4.13;;;1.88;;
44137;SDS011;29800;55.942;37.314;2022-09-09T14:06:52;3.97;;;1.80;;
44137;SDS011;29800;55.942;37.314;2022-09-09T14:09:21;1.90;;;1.15;;
44137;SDS011;29800;55.942;37.314;2022-09-09T14:11:47;2.60;;;1.45;;
44137;SDS011;29800;55.942;37.314;2022-09-09T14:14:17;3.65;;;1.88;;
44137;SDS011;29800;55.942;37.314;2022-09-09T14:16:43;5.50;;;1.90;;
44137;SDS011;29800;55.942;37.314;2022-09-09T14:19:10;2.17;;;1.20;;
44137;SDS011;29800;55.942;37.314;2022-09-09T14:21:36;3.85;;;2.33;;
44137;SDS011;29800;55.942;37.314;2022-09-09T14:24:05;6.65;;;2.80;;
44137;SDS011;29800;55.942;37.314;2022-09-09T14:26:31;5.50;;;2.97;;
44137;SDS011;29800;55.942;37.314;2022-09-09T14:29:03;6.40;;;2.85;;
44137;SDS011;29800;55.942;37.314;2022-09-09T14:31:29;6.00;;;2.95;;
44137;SDS011;29800;55.942;37.314;2022-09-09T14:34:02;11.80;;;6.05;;
44137;SDS011;29800;55.942;37.314;2022-09-09T14:36:34;9.18;;;5.28;;
44137;SDS011;29800;55.942;37.314;2022-09-09T14:39:03;9.05;;;4.57;;
44137;SDS011;29800;55.942;37.314;2022-09-09T14:41:33;10.40;;;3.45;;
44137;SDS011;29800;55.942;37.314;2022-09-09T14:44:05;6.20;;;2.10;;
44137;SDS011;29800;55.942;37.314;2022-09-09T14:46:31;3.60;;;1.80;;
44137;SDS011;29800;55.942;37.314;2022-09-09T14:49:03;4.72;;;1.83;;
44137;SDS011;29800;55.942;37.314;2022-09-09T14:51:32;4.20;;;2.30;;
44137;SDS011;29800;55.942;37.314;2022-09-09T14:54:02;3.20;;;1.85;;
44137;SDS011;29800;55.942;37.314;2022-09-09T14:56:30;4.60;;;1.98;;
44137;SDS011;29800;55.942;37.314;2022-09-09T14:59:09;3.72;;;2.03;;
44137;SDS011;29800;55.942;37.314;2022-09-09T15:01:38;5.93;;;2.85;;
44137;SDS011;29800;55.942;37.314;2022-09-09T15:04:11;5.75;;;2.90;;
44137;SDS011;29800;55.942;37.314;2022-09-09T15:06:50;4.93;;;2.92;;
44137;SDS011;29800;55.942;37.314;2022-09-09T15:09:24;6.53;;;3.10;;
44137;SDS011;29800;55.942;37.314;2022-09-09T15:11:50;4.95;;;3.00;;
44137;SDS011;29800;55.942;37.314;2022-09-09T15:14:16;4.07;;;2.35;;
44137;SDS011;29800;55.942;37.314;2022-09-09T15:16:42;5.90;;;2.03;;
44137;SDS011;29800;55.942;37.314;2022-09-09T15:19:09;4.60;;;2.42;;
44137;SDS011;29800;55.942;37.314;2022-09-09T15:21:35;3.85;;;2.20;;
44137;SDS011;29800;55.942;37.314;2022-09-09T15:24:06;4.00;;;2.53;;
44137;SDS011;29800;55.942;37.314;2022-09-09T15:26:33;6.45;;;3.63;;
44137;SDS011;29800;55.942;37.314;2022-09-09T15:29:04;7.35;;;4.22;;
44137;SDS011;29800;55.942;37.314;2022-09-09T15:31:33;7.70;;;4.50;;
44137;SDS011;29800;55.942;37.314;2022-09-09T15:34:00;7.63;;;4.57;;
44137;SDS011;29800;55.942;37.314;2022-09-09T15:36:36;8.48;;;4.82;;
44137;SDS011;29800;55.942;37.314;2022-09-09T15:39:13;8.20;;;5.05;;
44137;SDS011;29800;55.942;37.314;2022-09-09T15:41:47;9.23;;;5.45;;
44137;SDS011;29800;55.942;37.314;2022-09-09T15:44:17;12.45;;;6.85;;
44137;SDS011;29800;55.942;37.314;2022-09-09T15:46:46;15.00;;;8.50;;
44137;SDS011;29800;55.942;37.314;2022-09-09T15:49:16;13.98;;;7.82;;
44137;SDS011;29800;55.942;37.314;2022-09-09T15:51:44;13.13;;;6.80;;
44137;SDS011;29800;55.942;37.314;2022-09-09T15:54:16;11.27;;;5.85;;
44137;SDS011;29800;55.942;37.314;2022-09-09T15:56:45;10.32;;;5.10;;
44137;SDS011;29800;55.942;37.314;2022-09-09T15:59:17;9.15;;;5.25;;
44137;SDS011;29800;55.942;37.314;2022-09-09T16:01:49;9.73;;;5.85;;
44137;SDS011;29800;55.942;37.314;2022-09-09T16:04:34;12.05;;;6.88;;
44137;SDS011;29800;55.942;37.314;2022-09-09T16:07:02;11.82;;;8.00;;
44137;SDS011;29800;55.942;37.314;2022-09-09T16:09:34;14.60;;;8.90;;
44137;SDS011;29800;55.942;37.314;2022-09-09T16:12:01;14.13;;;9.10;;
44137;SDS011;29800;55.942;37.314;2022-09-09T16:14:34;15.43;;;9.25;;
44137;SDS011;29800;55.942;37.314;2022-09-09T16:17:04;18.52;;;9.95;;
44137;SDS011;29800;55.942;37.314;2022-09-09T16:19:34;16.38;;;9.32;;
44137;SDS011;29800;55.942;37.314;2022-09-09T16:22:00;14.63;;;7.95;;
44137;SDS011;29800;55.942;37.314;2022-09-09T16:24:28;12.23;;;7.22;;
44137;SDS011;29800;55.942;37.314;2022-09-09T16:26:54;9.82;;;5.72;;
44137;SDS011;29800;55.942;37.314;2022-09-09T16:29:26;11.27;;;6.55;;
44137;SDS011;29800;55.942;37.314;2022-09-09T16:31:55;10.05;;;5.75;;
44137;SDS011;29800;55.942;37.314;2022-09-09T16:34:21;12.65;;;5.80;;
44137;SDS011;29800;55.942;37.314;2022-09-09T16:36:48;8.23;;;4.68;;
44137;SDS011;29800;55.942;37.314;2022-09-09T16:39:15;6.75;;;3.75;;
44137;SDS011;29800;55.942;37.314;2022-09-09T16:41:43;9.20;;;4.47;;
44137;SDS011;29800;55.942;37.314;2022-09-09T16:44:17;14.13;;;4.47;;
44137;SDS011;29800;55.942;37.314;2022-09-09T16:46:50;10.57;;;5.32;;
44137;SDS011;29800;55.942;37.314;2022-09-09T16:49:17;19.17;;;8.98;;
44137;SDS011;29800;55.942;37.314;2022-09-09T16:51:49;23.92;;;13.15;;
44137;SDS011;29800;55.942;37.314;2022-09-09T16:54:21;19.65;;;12.73;;
44137;SDS011;29800;55.942;37.314;2022-09-09T16:56:48;28.30;;;15.48;;
44137;SDS011;29800;55.942;37.314;2022-09-09T16:59:21;23.10;;;13.40;;
44137;SDS011;29800;55.942;37.314;2022-09-09T17:01:51;19.02;;;9.65;;
44137;SDS011;29800;55.942;37.314;2022-09-09T17:04:21;21.85;;;13.07;;